Time;durP1;ratioP1;P1;durP2;ratioP2;P2;SDS_P1;SDS_P2;PMS_P1;PMS_P2;Temp;Humidity;BMP_temperature;BMP_pressure;BME280_temperature;BME280_humidity;BME280_pressure;Samples;Min_cycle;Max_cycle;Signal;HPM_P1;HPM_P2
2023/02/08 00:00:49;;;;;;;11.60;8.05;;;5.40;41.30;;;;;;6245202;22;20031;-76
2023/02/08 00:03:15;;;;;;;13.27;7.43;;;5.40;41.40;;;;;;6245365;22;20000;-77
2023/02/08 00:05:41;;;;;;;13.50;8.05;;;5.40;41.10;;;;;;6243679;23;20000;-77
2023/02/08 00:08:06;;;;;;;13.85;8.20;;;5.40;41.00;;;;;;6245364;22;20356;-75
2023/02/08 00:10:33;;;;;;;12.32;7.45;;;5.40;41.40;;;;;;6245184;22;20307;-76
2023/02/08 00:12:58;;;;;;;10.85;7.25;;;5.30;41.00;;;;;;6245077;22;20054;-76
2023/02/08 00:15:24;;;;;;;13.38;7.47;;;5.20;41.20;;;;;;6245499;22;20004;-77
2023/02/08 00:17:50;;;;;;;13.18;7.35;;;5.20;41.10;;;;;;6243489;23;20046;-75
2023/02/08 00:20:16;;;;;;;10.65;6.68;;;5.20;41.50;;;;;;6245105;22;20000;-78
2023/02/08 00:22:42;;;;;;;15.82;7.63;;;5.20;41.40;;;;;;6245161;22;20000;-77
2023/02/08 00:25:08;;;;;;;11.77;7.13;;;5.20;41.40;;;;;;6245376;22;20050;-77
2023/02/08 00:27:35;;;;;;;11.68;6.95;;;5.20;41.40;;;;;;6246111;22;20014;-76
2023/02/08 00:30:00;;;;;;;10.82;6.57;;;5.10;41.00;;;;;;6247303;22;20031;-77
2023/02/08 00:32:26;;;;;;;9.80;6.45;;;5.10;41.40;;;;;;6247159;22;20445;-76
2023/02/08 00:34:52;;;;;;;10.52;7.10;;;5.10;41.50;;;;;;6246877;22;20043;-76
2023/02/08 00:37:17;;;;;;;10.25;6.50;;;5.10;41.70;;;;;;6247070;22;19996;-77
2023/02/08 00:39:43;;;;;;;11.73;7.50;;;5.10;41.40;;;;;;6245628;23;20118;-77
2023/02/08 00:42:09;;;;;;;9.98;6.50;;;5.00;41.50;;;;;;6247150;22;20023;-75
2023/02/08 00:44:35;;;;;;;13.07;6.97;;;5.00;41.50;;;;;;6247022;22;20040;-75
2023/02/08 00:47:00;;;;;;;11.32;6.57;;;5.00;41.70;;;;;;6246870;22;20022;-76
2023/02/08 00:49:26;;;;;;;9.45;6.60;;;5.10;41.60;;;;;;6246804;22;20008;-76
2023/02/08 00:51:52;;;;;;;10.07;6.47;;;5.00;41.60;;;;;;6245176;23;20334;-76
2023/02/08 00:54:19;;;;;;;10.95;6.65;;;5.00;41.30;;;;;;6246856;22;20445;-75
2023/02/08 00:56:45;;;;;;;10.40;6.10;;;5.00;41.40;;;;;;6246664;22;20000;-76
2023/02/08 00:59:12;;;;;;;11.38;6.22;;;5.00;41.60;;;;;;6246614;22;20014;-75
2023/02/08 01:01:38;;;;;;;10.82;6.25;;;5.10;41.90;;;;;;6246848;22;20004;-76
2023/02/08 01:04:04;;;;;;;10.57;5.88;;;5.10;41.70;;;;;;6246663;22;20004;-76
2023/02/08 01:06:30;;;;;;;10.00;6.13;;;5.10;41.70;;;;;;6246634;22;20111;-75
2023/02/08 01:08:55;;;;;;;12.90;6.10;;;5.20;41.70;;;;;;6246161;22;20011;-76
2023/02/08 01:11:26;;;;;;;9.50;5.70;;;5.20;41.30;;;;;;6244919;23;20012;-75
2023/02/08 01:13:56;;;;;;;9.57;5.72;;;5.20;41.40;;;;;;6246854;22;20327;-76
2023/02/08 01:16:24;;;;;;;10.25;5.70;;;5.20;41.40;;;;;;6246684;22;20334;-76
2023/02/08 01:18:52;;;;;;;9.32;5.85;;;5.10;41.10;;;;;;6246130;22;20091;-76
2023/02/08 01:21:21;;;;;;;12.07;6.22;;;5.10;41.20;;;;;;6246653;22;20058;-76
2023/02/08 01:23:47;;;;;;;9.38;5.82;;;5.10;41.50;;;;;;6246419;22;20008;-75
2023/02/08 01:26:14;;;;;;;9.02;5.63;;;5.10;41.50;;;;;;6247147;22;19996;-75
2023/02/08 01:28:41;;;;;;;8.05;5.18;;;5.10;41.50;;;;;;6247386;22;20105;-76
2023/02/08 01:31:10;;;;;;;8.88;5.22;;;5.10;41.40;;;;;;6246953;22;20004;-77
2023/02/08 01:33:36;;;;;;;10.30;5.60;;;5.20;41.30;;;;;;6246627;22;20004;-76
2023/02/08 01:36:02;;;;;;;9.07;5.65;;;5.20;41.40;;;;;;6246307;22;20434;-75
2023/02/08 01:38:28;;;;;;;10.15;5.25;;;5.20;41.20;;;;;;6245846;22;20008;-76
2023/02/08 01:40:54;;;;;;;16.65;5.85;;;5.20;41.30;;;;;;6244474;23;20004;-76
2023/02/08 01:43:26;;;;;;;11.02;5.70;;;5.10;41.60;;;;;;6245929;22;20070;-76
2023/02/08 01:45:52;;;;;;;9.43;5.50;;;5.20;40.80;;;;;;6245958;22;20464;-76
2023/02/08 01:48:25;;;;;;;9.57;5.85;;;5.20;41.00;;;;;;6246065;22;19996;-74
2023/02/08 01:51:09;;;;;;;8.93;5.15;;;5.20;40.60;;;;;;6245913;22;20035;-75
2023/02/08 01:53:35;;;;;;;8.82;5.30;;;5.20;41.10;;;;;;6246005;22;20011;-76
2023/02/08 01:56:05;;;;;;;8.43;5.38;;;5.20;41.30;;;;;;6246145;22;20075;-76
2023/02/08 01:58:35;;;;;;;9.10;5.40;;;5.20;41.20;;;;;;6245611;22;20012;-76
2023/02/08 02:01:02;;;;;;;10.43;5.22;;;5.10;41.20;;;;;;6245853;22;20011;-76
2023/02/08 02:03:28;;;;;;;7.57;4.82;;;5.20;41.40;;;;;;6246075;22;20436;-76
2023/02/08 02:06:11;;;;;;;9.20;5.38;;;5.20;41.30;;;;;;6243920;23;20082;-76
2023/02/08 02:08:41;;;;;;;9.55;5.45;;;5.20;40.60;;;;;;6245783;22;20089;-77
2023/02/08 02:11:07;;;;;;;8.25;4.55;;;5.30;41.60;;;;;;6245917;22;19996;-75
2023/02/08 02:13:35;;;;;;;8.27;5.10;;;5.20;41.40;;;;;;6245894;22;20070;-68
2023/02/08 02:16:01;;;;;;;8.63;4.80;;;5.20;41.30;;;;;;6245859;22;20046;-76
2023/02/08 02:18:29;;;;;;;10.85;4.60;;;5.20;41.10;;;;;;6245819;22;20016;-75
2023/02/08 02:21:07;;;;;;;7.57;4.70;;;5.10;41.10;;;;;;6245731;22;20007;-75
2023/02/08 02:24:28;;;;;;;7.63;4.57;;;5.10;40.50;;;;;;6246591;22;20083;-76
2023/02/08 02:27:21;;;;;;;7.50;4.03;;;5.10;40.60;;;;;;6214889;23;20307;-75
2023/02/08 02:30:02;;;;;;;7.90;4.63;;;5.10;40.50;;;;;;6245897;22;20016;-76
2023/02/08 02:32:47;;;;;;;7.18;4.00;;;5.10;40.60;;;;;;6245671;22;20226;-76
2023/02/08 02:35:35;;;;;;;7.82;4.28;;;5.10;41.10;;;;;;6245664;22;20449;-77
2023/02/08 02:38:27;;;;;;;9.52;4.10;;;5.10;41.20;;;;;;6245688;22;20007;-77
2023/02/08 02:41:09;;;;;;;8.05;4.45;;;5.10;40.50;;;;;;6233127;23;20012;-75
2023/02/08 02:43:45;;;;;;;8.73;4.80;;;5.10;40.60;;;;;;6245464;22;20000;-76
2023/02/08 02:46:40;;;;;;;6.22;4.00;;;5.10;40.60;;;;;;6245784;22;20008;-75
2023/02/08 02:49:24;;;;;;;7.50;4.15;;;5.20;40.70;;;;;;6240851;23;20008;-73
2023/02/08 02:52:04;;;;;;;;;;;5.10;40.60;;;;;;6246031;22;20330;-76
2023/02/08 02:54:40;;;;;;;8.43;4.88;;;5.00;40.70;;;;;;6245548;22;19906;-75
2023/02/08 02:57:10;;;;;;;8.38;4.25;;;5.00;41.60;;;;;;6245378;22;20023;-75
2023/02/08 02:59:37;;;;;;;6.35;3.92;;;4.90;41.90;;;;;;6245328;22;20062;-76
2023/02/08 03:02:04;;;;;;;7.60;4.45;;;4.90;42.10;;;;;;6245134;22;20000;-76
2023/02/08 03:04:32;;;;;;;7.75;4.20;;;4.90;42.30;;;;;;6245213;22;20000;-76
2023/02/08 03:07:17;;;;;;;7.93;5.25;;;4.80;41.90;;;;;;6245548;22;20085;-75
2023/02/08 03:10:00;;;;;;;6.63;4.00;;;4.80;42.40;;;;;;6245352;22;20035;-76
2023/02/08 03:12:33;;;;;;;6.95;3.88;;;4.90;41.30;;;;;;6245376;22;20426;-76
2023/02/08 03:15:35;;;;;;;6.90;3.90;;;4.90;42.20;;;;;;6245542;22;20045;-75
2023/02/08 03:18:13;;;;;;;10.43;3.78;;;4.80;41.10;;;;;;6243763;23;20008;-76
2023/02/08 03:21:24;;;;;;;8.70;3.83;;;4.80;41.20;;;;;;6245182;22;20071;-76
2023/02/08 03:24:31;;;;;;;9.10;5.15;;;4.80;41.20;;;;;;6216894;22;20004;-76
2023/02/08 03:27:17;;;;;;;7.30;3.95;;;4.70;41.30;;;;;;6194517;22;20008;-76
2023/02/08 03:29:46;;;;;;;11.20;4.70;;;4.70;41.40;;;;;;6244979;22;20044;-76
2023/02/08 03:32:29;;;;;;;7.32;3.92;;;4.70;42.80;;;;;;6244975;22;20373;-75
2023/02/08 03:35:11;;;;;;;6.82;4.55;;;4.60;42.80;;;;;;6245166;22;20000;-75
2023/02/08 03:37:53;;;;;;;6.35;3.63;;;4.60;42.80;;;;;;6245662;22;20031;-76
2023/02/08 03:40:38;;;;;;;8.60;4.95;;;4.60;43.00;;;;;;6245280;22;20040;-75
2023/02/08 03:43:10;;;;;;;7.57;4.13;;;4.60;43.10;;;;;;6245629;22;20138;-76
2023/02/08 03:45:40;;;;;;;10.18;5.53;;;4.60;43.10;;;;;;6245345;22;20007;-77
2023/02/08 03:48:09;;;;;;;7.93;4.30;;;4.60;43.70;;;;;;6245092;22;20000;-75
2023/02/08 03:50:38;;;;;;;6.53;4.05;;;4.60;43.30;;;;;;6245303;22;19996;-77
2023/02/08 03:53:05;;;;;;;8.35;4.70;;;4.60;43.30;;;;;;6245123;22;20002;-75
2023/02/08 03:55:34;;;;;;;7.30;3.97;;;4.50;43.30;;;;;;6245331;22;20003;-76
2023/02/08 03:58:03;;;;;;;6.70;4.13;;;4.40;43.30;;;;;;6244529;22;19996;-77
2023/02/08 04:00:31;;;;;;;9.13;5.18;;;4.30;43.30;;;;;;6244756;22;20000;-75
2023/02/08 04:03:09;;;;;;;9.13;5.18;;;4.30;43.60;;;;;;6247045;22;20001;-76
2023/02/08 04:05:36;;;;;;;8.48;3.83;;;4.20;43.60;;;;;;6247123;22;20077;-77
2023/02/08 04:08:02;;;;;;;9.45;4.63;;;4.20;43.60;;;;;;6245404;23;20068;-76
2023/02/08 04:10:28;;;;;;;8.73;4.97;;;4.30;43.60;;;;;;6247861;22;20418;-75
2023/02/08 04:12:53;;;;;;;9.20;4.43;;;4.30;43.60;;;;;;6247422;22;20006;-76
2023/02/08 04:15:19;;;;;;;11.63;6.60;;;4.40;44.20;;;;;;6247158;22;20058;-76
2023/02/08 04:17:44;;;;;;;8.25;5.03;;;4.40;43.50;;;;;;6246693;22;20024;-76
2023/02/08 04:20:11;;;;;;;7.20;4.57;;;4.30;43.60;;;;;;6246959;22;20020;-75
2023/02/08 04:22:36;;;;;;;7.03;4.32;;;4.40;43.50;;;;;;6247058;22;20031;-76
2023/02/08 04:25:02;;;;;;;9.10;5.03;;;4.40;43.60;;;;;;6246842;22;20004;-75
2023/02/08 04:27:28;;;;;;;8.98;5.40;;;4.40;43.40;;;;;;6247231;22;20047;-76
2023/02/08 04:29:54;;;;;;;7.85;5.15;;;4.40;43.50;;;;;;6246838;22;20012;-74
2023/02/08 04:32:19;;;;;;;12.23;5.15;;;4.40;43.60;;;;;;6246707;22;20000;-75
2023/02/08 04:34:45;;;;;;;8.60;5.30;;;4.40;43.60;;;;;;6246725;22;19996;-76
2023/02/08 04:37:11;;;;;;;8.27;5.25;;;4.30;43.50;;;;;;6246936;22;20011;-75
2023/02/08 04:39:37;;;;;;;10.88;5.65;;;4.30;43.70;;;;;;6246604;22;20095;-75
2023/02/08 04:42:04;;;;;;;8.45;5.22;;;4.30;43.90;;;;;;6246624;22;20022;-75
2023/02/08 04:44:31;;;;;;;10.05;5.00;;;4.30;43.90;;;;;;6246842;22;20010;-75
2023/02/08 04:46:58;;;;;;;8.10;4.68;;;4.40;43.60;;;;;;6247126;22;20055;-76
2023/02/08 04:49:23;;;;;;;8.55;5.32;;;4.40;43.60;;;;;;6246964;23;20010;-75
2023/02/08 04:51:49;;;;;;;9.40;5.32;;;4.50;43.40;;;;;;6246888;22;20414;-76
2023/02/08 04:54:15;;;;;;;8.57;4.78;;;4.50;43.50;;;;;;6246605;22;20004;-75
2023/02/08 04:56:40;;;;;;;9.18;5.47;;;4.60;43.60;;;;;;6247089;22;20023;-76
2023/02/08 04:59:06;;;;;;;8.65;4.22;;;4.50;43.40;;;;;;6246709;22;20008;-76
2023/02/08 05:01:32;;;;;;;8.57;4.47;;;4.50;43.70;;;;;;6247021;23;20000;-75
2023/02/08 05:03:58;;;;;;;8.77;5.68;;;4.40;43.60;;;;;;6247334;22;20004;-75
2023/02/08 05:06:24;;;;;;;9.68;4.75;;;4.40;43.70;;;;;;6247620;22;19996;-75
2023/02/08 05:08:49;;;;;;;12.82;6.25;;;4.30;43.50;;;;;;6246802;22;20004;-76
2023/02/08 05:11:24;;;;;;;8.38;4.80;;;4.40;43.60;;;;;;6246466;22;20422;-76
2023/02/08 05:13:51;;;;;;;7.80;5.07;;;4.30;43.60;;;;;;6245910;22;20000;-77
2023/02/08 05:16:16;;;;;;;13.73;6.57;;;4.20;43.60;;;;;;6246623;22;20007;-76
2023/02/08 05:18:42;;;;;;;8.40;4.82;;;4.20;43.60;;;;;;6246540;22;20346;-76
2023/02/08 05:21:08;;;;;;;14.00;6.53;;;4.10;44.00;;;;;;6246540;22;19997;-76
2023/02/08 05:23:35;;;;;;;10.27;6.22;;;4.20;43.90;;;;;;6246280;22;20008;-76
2023/02/08 05:26:08;;;;;;;9.30;5.82;;;4.20;44.00;;;;;;6246743;22;20003;-75
2023/02/08 05:28:34;;;;;;;7.63;4.40;;;4.20;44.00;;;;;;6246725;22;20012;-78
2023/02/08 05:31:11;;;;;;;8.43;5.40;;;4.20;44.50;;;;;;6246301;22;20007;-77
2023/02/08 05:33:37;;;;;;;10.50;5.07;;;4.20;44.00;;;;;;6246315;22;20011;-75
2023/02/08 05:36:02;;;;;;;10.63;5.63;;;4.30;44.00;;;;;;6246168;22;20327;-75
2023/02/08 05:38:28;;;;;;;11.40;5.72;;;4.20;44.10;;;;;;6246348;22;20016;-75
2023/02/08 05:40:54;;;;;;;11.90;5.78;;;4.20;44.30;;;;;;6246548;22;20046;-75
2023/02/08 05:43:19;;;;;;;10.85;6.22;;;4.30;44.40;;;;;;6246279;22;20434;-76
2023/02/08 05:45:45;;;;;;;10.32;5.35;;;4.30;44.30;;;;;;6245861;22;20003;-78
2023/02/08 05:48:11;;;;;;;7.72;4.32;;;4.30;44.40;;;;;;6246211;22;20012;-75
2023/02/08 05:50:36;;;;;;;9.55;5.28;;;4.20;44.10;;;;;;6246175;22;20078;-77
2023/02/08 05:53:02;;;;;;;10.00;5.28;;;4.20;44.40;;;;;;6244303;23;20007;-76
2023/02/08 05:55:28;;;;;;;11.43;5.38;;;4.20;44.30;;;;;;6246271;22;20083;-76
2023/02/08 05:57:54;;;;;;;10.48;5.68;;;4.10;44.40;;;;;;6244353;23;20000;-76
2023/02/08 06:00:20;;;;;;;9.30;5.30;;;4.20;44.40;;;;;;6246693;22;20011;-77
2023/02/08 06:02:45;;;;;;;10.85;5.35;;;4.20;44.20;;;;;;6246379;22;20000;-76
2023/02/08 06:05:11;;;;;;;9.80;4.88;;;4.10;44.10;;;;;;6244520;23;20008;-76
2023/02/08 06:07:37;;;;;;;10.60;5.43;;;4.10;44.40;;;;;;6246655;22;20440;-78
2023/02/08 06:10:03;;;;;;;14.10;5.85;;;4.10;44.30;;;;;;6246391;22;20067;-78
2023/02/08 06:12:29;;;;;;;12.68;5.25;;;4.10;44.20;;;;;;6244868;23;20434;-76
2023/02/08 06:14:54;;;;;;;11.63;5.53;;;4.10;44.30;;;;;;6246270;22;20001;-79
2023/02/08 06:17:20;;;;;;;11.45;5.30;;;4.10;44.30;;;;;;6246255;22;20007;-77
2023/02/08 06:19:46;;;;;;;8.30;5.22;;;4.00;44.40;;;;;;6246064;22;20018;-76
2023/02/08 06:22:11;;;;;;;16.70;7.03;;;4.00;44.30;;;;;;6246127;22;19996;-77
2023/02/08 06:24:37;;;;;;;10.52;5.68;;;4.00;44.40;;;;;;6246265;22;20359;-77
2023/02/08 06:27:03;;;;;;;9.80;5.68;;;4.00;44.30;;;;;;6245821;22;20079;-77
2023/02/08 06:29:28;;;;;;;11.20;6.05;;;4.00;44.50;;;;;;6245804;22;20012;-76
2023/02/08 06:31:54;;;;;;;13.82;6.25;;;4.00;44.80;;;;;;6245732;23;20000;-78
2023/02/08 06:34:20;;;;;;;10.27;5.88;;;4.00;44.60;;;;;;6245493;22;20004;-76
2023/02/08 06:36:46;;;;;;;9.85;6.05;;;4.10;44.60;;;;;;6245726;22;20000;-78
2023/02/08 06:39:11;;;;;;;9.10;5.93;;;4.10;44.80;;;;;;6244132;23;20023;-76
2023/02/08 06:41:37;;;;;;;14.50;6.40;;;4.20;44.70;;;;;;6245691;22;20462;-78
2023/02/08 06:44:03;;;;;;;10.93;6.30;;;4.10;44.60;;;;;;6246106;22;20004;-78
2023/02/08 06:46:29;;;;;;;11.07;6.80;;;4.00;44.50;;;;;;6245638;22;20050;-78
2023/02/08 06:48:56;;;;;;;12.70;6.75;;;4.00;44.70;;;;;;6245679;22;20054;-78
2023/02/08 06:51:22;;;;;;;12.05;6.78;;;4.00;45.10;;;;;;6245913;22;20000;-77
2023/02/08 06:53:48;;;;;;;8.80;5.05;;;4.00;45.00;;;;;;6245765;22;20004;-78
2023/02/08 06:56:14;;;;;;;13.07;6.80;;;4.00;45.10;;;;;;6247093;22;20076;-78
2023/02/08 06:58:39;;;;;;;14.52;7.30;;;4.10;45.10;;;;;;6246956;22;20020;-76
2023/02/08 07:01:05;;;;;;;12.45;7.28;;;4.10;44.80;;;;;;6243535;23;20370;-78
2023/02/08 07:03:31;;;;;;;10.98;6.85;;;4.20;44.90;;;;;;6245581;22;20012;-77
2023/02/08 07:05:56;;;;;;;13.82;7.70;;;4.30;44.80;;;;;;6246719;22;20063;-79
2023/02/08 07:08:22;;;;;;;13.02;7.25;;;4.40;44.80;;;;;;6245478;22;19996;-76
2023/02/08 07:10:48;;;;;;;13.32;8.20;;;4.50;44.60;;;;;;6245174;22;20011;-79
2023/02/08 07:13:13;;;;;;;9.80;6.20;;;4.70;44.90;;;;;;6245395;22;20000;-77
2023/02/08 07:15:39;;;;;;;12.20;7.78;;;4.80;44.80;;;;;;6245517;22;20326;-79
2023/02/08 07:18:05;;;;;;;9.80;6.72;;;4.90;44.40;;;;;;6245045;22;20338;-76
2023/02/08 07:20:30;;;;;;;11.18;6.85;;;5.00;44.60;;;;;;6247380;22;20010;-78
2023/02/08 07:22:56;;;;;;;11.77;7.18;;;5.20;44.70;;;;;;6245395;22;20011;-78
2023/02/08 07:25:22;;;;;;;11.25;6.45;;;5.30;44.90;;;;;;6245143;22;20082;-78
2023/02/08 07:27:47;;;;;;;14.57;6.68;;;5.20;44.10;;;;;;6244912;22;20008;-75
2023/02/08 07:30:13;;;;;;;8.75;5.97;;;5.40;44.60;;;;;;6244936;22;20071;-76
2023/02/08 07:32:39;;;;;;;14.75;6.53;;;5.50;44.80;;;;;;6244597;22;20000;-78
2023/02/08 07:35:05;;;;;;;12.60;6.40;;;5.60;44.00;;;;;;6244384;22;20004;-76
2023/02/08 07:37:31;;;;;;;13.63;6.68;;;5.60;43.90;;;;;;6244642;22;20071;-78
2023/02/08 07:39:57;;;;;;;14.68;6.25;;;5.60;44.20;;;;;;6245054;22;20012;-78
2023/02/08 07:42:23;;;;;;;11.15;6.00;;;5.80;44.40;;;;;;6245671;22;20066;-77
2023/02/08 07:44:49;;;;;;;11.80;6.15;;;5.90;44.20;;;;;;6245645;22;20003;-77
2023/02/08 07:47:16;;;;;;;10.95;6.43;;;6.00;44.20;;;;;;6245320;22;20005;-78
2023/02/08 07:49:41;;;;;;;14.70;6.30;;;6.10;43.80;;;;;;6245947;22;20000;-77
2023/02/08 07:52:07;;;;;;;10.90;6.05;;;6.20;43.90;;;;;;6245245;22;19997;-77
2023/02/08 07:54:33;;;;;;;12.10;6.57;;;6.20;43.60;;;;;;6245444;22;20012;-78
2023/02/08 07:56:58;;;;;;;10.45;6.07;;;6.20;43.60;;;;;;6245106;22;20027;-77
2023/02/08 07:59:24;;;;;;;11.10;6.30;;;6.20;43.20;;;;;;6245242;22;20008;-77
2023/02/08 08:01:50;;;;;;;14.63;6.70;;;6.10;43.10;;;;;;6245845;22;20004;-78
2023/02/08 08:04:16;;;;;;;9.32;6.22;;;6.10;43.50;;;;;;6245640;22;20007;-78
2023/02/08 08:06:42;;;;;;;9.98;6.85;;;6.00;43.20;;;;;;6245318;22;20000;-76
2023/02/08 08:09:07;;;;;;;17.88;5.95;;;6.00;43.00;;;;;;6245243;22;20004;-76
2023/02/08 08:11:33;;;;;;;17.05;6.20;;;5.80;43.10;;;;;;6245990;22;20077;-73
2023/02/08 08:13:59;;;;;;;11.18;6.53;;;5.70;43.40;;;;;;6244889;22;20095;-73
2023/02/08 08:16:24;;;;;;;11.48;6.28;;;5.60;43.30;;;;;;6244779;22;20015;-73
2023/02/08 08:18:50;;;;;;;12.35;5.85;;;5.50;43.30;;;;;;6244469;22;20339;-75
2023/02/08 08:21:16;;;;;;;13.93;5.95;;;5.50;43.60;;;;;;6244691;22;20032;-79
2023/02/08 08:23:42;;;;;;;11.23;6.32;;;5.50;43.60;;;;;;6245145;22;20019;-79
2023/02/08 08:26:09;;;;;;;12.05;5.88;;;5.50;43.70;;;;;;6245257;22;20088;-79
2023/02/08 08:28:36;;;;;;;14.57;6.60;;;5.50;43.70;;;;;;6245091;22;20044;-78
2023/02/08 08:31:02;;;;;;;10.32;5.72;;;5.60;44.00;;;;;;6245624;22;20035;-79
2023/02/08 08:33:27;;;;;;;12.27;6.00;;;5.60;43.80;;;;;;6247354;22;20000;-80
2023/02/08 08:35:53;;;;;;;8.60;5.22;;;5.50;43.60;;;;;;6246028;22;20080;-80
2023/02/08 08:38:19;;;;;;;11.40;5.70;;;5.50;43.70;;;;;;6243969;23;20012;-80
2023/02/08 08:40:44;;;;;;;13.73;6.43;;;5.40;43.80;;;;;;6244644;22;20006;-79
2023/02/08 08:43:10;;;;;;;10.57;6.22;;;5.40;44.10;;;;;;6244725;22;20004;-81
2023/02/08 08:45:36;;;;;;;12.85;6.32;;;5.40;43.90;;;;;;6246102;22;19996;-80
2023/02/08 08:48:05;;;;;;;10.05;5.78;;;5.50;44.00;;;;;;6246641;22;20008;-79
2023/02/08 08:50:30;;;;;;;10.32;6.43;;;5.60;44.00;;;;;;6248020;22;20434;-79
2023/02/08 08:52:56;;;;;;;10.57;6.50;;;5.60;44.10;;;;;;6249325;22;20011;-79
2023/02/08 08:55:22;;;;;;;11.35;6.00;;;5.70;44.20;;;;;;6248767;22;20003;-82
2023/02/08 08:57:48;;;;;;;9.93;5.65;;;5.80;44.00;;;;;;6248354;22;20331;-78
2023/02/08 09:00:14;;;;;;;13.73;5.68;;;5.90;43.90;;;;;;6244920;23;20089;-79
2023/02/08 09:02:39;;;;;;;11.27;5.47;;;5.90;43.80;;;;;;6248951;22;19997;-80
2023/02/08 09:05:06;;;;;;;9.90;5.03;;;5.90;44.00;;;;;;6249819;22;20073;-78
2023/02/08 09:07:32;;;;;;;11.13;5.30;;;5.90;43.60;;;;;;6247231;22;19996;-79
2023/02/08 09:09:58;;;;;;;9.60;5.25;;;5.90;43.90;;;;;;6247720;22;20062;-79
2023/02/08 09:12:23;;;;;;;8.65;5.18;;;5.90;43.90;;;;;;6246937;22;19996;-82
2023/02/08 09:14:49;;;;;;;9.10;5.55;;;6.00;44.00;;;;;;6246901;22;20011;-79
2023/02/08 09:17:15;;;;;;;11.77;5.50;;;6.10;43.90;;;;;;6246904;22;20147;-80
2023/02/08 09:19:41;;;;;;;9.98;5.50;;;6.20;44.00;;;;;;6246730;22;20438;-79
2023/02/08 09:22:07;;;;;;;11.07;5.18;;;6.30;44.00;;;;;;6247502;22;19996;-78
2023/02/08 09:24:34;;;;;;;10.20;5.13;;;6.40;43.90;;;;;;6247516;22;20008;-79
2023/02/08 09:27:00;;;;;;;10.35;5.18;;;6.50;43.80;;;;;;6246807;22;20061;-80
2023/02/08 09:29:28;;;;;;;12.10;4.97;;;6.60;44.00;;;;;;6246691;22;20107;-79
2023/02/08 09:31:54;;;;;;;9.93;5.43;;;6.60;43.60;;;;;;6247636;23;20461;-79
2023/02/08 09:34:20;;;;;;;9.73;5.28;;;6.70;43.30;;;;;;6246750;22;20000;-79
2023/02/08 09:36:45;;;;;;;7.50;4.50;;;6.70;43.50;;;;;;6246729;22;20406;-80
2023/02/08 09:39:18;;;;;;;11.02;5.88;;;6.80;43.50;;;;;;6246932;22;20398;-82
2023/02/08 09:42:02;;;;;;;8.23;4.88;;;6.80;43.40;;;;;;6246865;22;20000;-81
2023/02/08 09:44:27;;;;;;;;;;;6.90;43.30;;;;;;6247271;22;20004;-80
2023/02/08 09:47:02;;;;;;;8.20;4.88;;;7.00;43.00;;;;;;6246317;23;20400;-80
2023/02/08 09:49:37;;;;;;;11.27;5.00;;;7.00;43.30;;;;;;6246315;22;20004;-80
2023/02/08 09:52:09;;;;;;;8.80;4.80;;;7.10;43.00;;;;;;6246433;22;20003;-79
2023/02/08 09:54:47;;;;;;;10.32;4.88;;;7.20;43.10;;;;;;6246117;22;19997;-79
2023/02/08 09:57:18;;;;;;;7.40;4.57;;;7.30;43.00;;;;;;6246443;22;20007;-79
2023/02/08 09:59:55;;;;;;;12.77;4.75;;;7.50;42.90;;;;;;6246051;22;20439;-80
2023/02/08 10:02:33;;;;;;;8.30;4.18;;;7.50;42.40;;;;;;6246425;22;19996;-81
2023/02/08 10:05:00;;;;;;;8.05;4.20;;;7.60;42.20;;;;;;6246430;22;20004;-81
2023/02/08 10:07:28;;;;;;;8.70;4.95;;;7.70;41.90;;;;;;6246641;22;19996;-79
2023/02/08 10:10:04;;;;;;;10.32;5.30;;;7.80;41.70;;;;;;6247427;22;20004;-79
2023/02/08 10:12:56;;;;;;;9.43;4.35;;;7.90;42.20;;;;;;6246317;22;20390;-80
2023/02/08 10:15:45;;;;;;;8.65;4.70;;;8.00;41.20;;;;;;6247622;22;20322;-80
2023/02/08 10:18:18;;;;;;;9.05;4.57;;;8.10;42.10;;;;;;6244459;23;20031;-80
2023/02/08 10:21:06;;;;;;;11.60;5.13;;;8.20;42.10;;;;;;6246155;22;20004;-80
2023/02/08 10:24:10;;;;;;;13.40;4.75;;;8.30;40.40;;;;;;6245835;22;20004;-80
2023/02/08 10:26:44;;;;;;;7.70;4.95;;;8.30;41.20;;;;;;6129629;23;20002;-80
2023/02/08 10:29:47;;;;;;;9.40;4.47;;;8.40;41.20;;;;;;6231944;22;20395;-79
2023/02/08 10:32:27;;;;;;;9.52;4.40;;;8.30;41.20;;;;;;6245475;22;19996;-80
2023/02/08 10:34:57;;;;;;;7.80;4.18;;;8.40;40.70;;;;;;6246816;22;20058;-80
2023/02/08 10:37:35;;;;;;;8.43;4.13;;;8.50;39.30;;;;;;6245558;22;20334;-80
2023/02/08 10:40:38;;;;;;;11.65;4.40;;;8.60;39.70;;;;;;6245166;22;20087;-80
2023/02/08 10:43:25;;;;;;;14.95;4.60;;;8.70;41.00;;;;;;6246003;22;20039;-80
2023/02/08 10:46:09;;;;;;;10.45;4.80;;;8.90;40.50;;;;;;6245912;22;20004;-80
2023/02/08 10:49:03;;;;;;;7.13;4.30;;;9.00;40.20;;;;;;6245590;22;19996;-81
2023/02/08 10:51:29;;;;;;;7.45;3.95;;;9.00;39.90;;;;;;6246917;22;20004;-79
2023/02/08 10:53:56;;;;;;;9.65;4.10;;;9.10;37.70;;;;;;6244846;22;20387;-79
2023/02/08 10:56:40;;;;;;;5.47;3.50;;;9.20;37.50;;;;;;6243354;23;20727;-80
2023/02/08 10:59:20;;;;;;;7.85;4.43;;;9.30;39.20;;;;;;6244675;22;20019;-80
2023/02/08 11:01:47;;;;;;;6.47;3.75;;;9.40;39.50;;;;;;6244513;22;20067;-81
2023/02/08 11:04:14;;;;;;;8.65;4.03;;;9.50;37.30;;;;;;6244668;22;19996;-79
2023/02/08 11:06:41;;;;;;;5.57;3.50;;;9.60;37.70;;;;;;6244905;22;20011;-79
2023/02/08 11:09:22;;;;;;;9.40;4.40;;;9.80;37.50;;;;;;6244861;22;20023;-80
2023/02/08 11:11:51;;;;;;;7.65;4.10;;;9.80;38.50;;;;;;6246225;22;20303;-78
2023/02/08 11:14:21;;;;;;;12.05;3.72;;;9.90;37.20;;;;;;6245995;22;20279;-81
2023/02/08 11:16:52;;;;;;;7.13;3.80;;;9.90;36.90;;;;;;6245277;22;20012;-79
2023/02/08 11:19:45;;;;;;;7.97;3.80;;;9.90;36.50;;;;;;6244687;22;20374;-81
2023/02/08 11:22:19;;;;;;;9.25;3.83;;;10.00;36.00;;;;;;6234855;22;20007;-80
2023/02/08 11:24:53;;;;;;;7.38;3.75;;;10.00;35.80;;;;;;6244939;22;20051;-80
2023/02/08 11:30:16;;;;;;;10.15;3.90;;;10.20;35.90;;;;;;6182547;23;20156;-82
2023/02/08 11:32:45;;;;;;;8.27;3.63;;;10.40;35.90;;;;;;6184823;23;20427;-80
2023/02/08 11:35:19;;;;;;;5.35;3.20;;;10.40;35.50;;;;;;6184523;23;20012;-82
2023/02/08 11:37:53;;;;;;;6.20;3.20;;;10.40;35.40;;;;;;6184978;23;20079;-81
2023/02/08 11:40:24;;;;;;;10.65;5.85;;;10.40;35.10;;;;;;6184560;23;20017;-80
2023/02/08 11:42:51;;;;;;;9.77;3.28;;;10.40;35.00;;;;;;6184542;23;20001;-78
2023/02/08 11:45:36;;;;;;;8.75;3.90;;;10.50;35.20;;;;;;6184624;23;20080;-80
2023/02/08 11:48:03;;;;;;;7.07;3.58;;;10.60;35.60;;;;;;6184384;23;20051;-79
2023/02/08 11:50:35;;;;;;;7.65;3.50;;;10.70;35.70;;;;;;6184169;23;20383;-81
2023/02/08 11:53:04;;;;;;;5.32;3.20;;;10.80;35.00;;;;;;6184374;23;20016;-81
2023/02/08 11:55:32;;;;;;;8.02;3.88;;;10.80;34.60;;;;;;6183906;23;20084;-80
2023/02/08 11:58:01;;;;;;;6.93;3.08;;;10.80;34.40;;;;;;6184373;23;19997;-79
2023/02/08 12:00:29;;;;;;;5.63;3.05;;;10.90;34.10;;;;;;6184235;23;20037;-78
2023/02/08 12:03:12;;;;;;;5.65;3.38;;;10.90;34.20;;;;;;6184568;23;20068;-80
2023/02/08 12:06:13;;;;;;;9.02;3.97;;;11.00;34.10;;;;;;6184220;23;20330;-78
2023/02/08 12:08:51;;;;;;;7.30;3.92;;;11.10;32.70;;;;;;6184468;23;20284;-79
2023/02/08 12:11:44;;;;;;;8.82;3.63;;;11.20;33.40;;;;;;6184098;23;20080;-78
2023/02/08 12:14:32;;;;;;;5.30;3.40;;;11.40;32.50;;;;;;6184536;23;20028;-80
2023/02/08 12:17:03;;;;;;;5.75;3.30;;;11.50;33.00;;;;;;6185329;23;20001;-81
2023/02/08 12:19:51;;;;;;;7.10;3.40;;;11.60;32.90;;;;;;6184853;23;20009;-80
2023/02/08 12:22:28;;;;;;;5.50;3.20;;;11.70;32.60;;;;;;6184932;23;20001;-80
2023/02/08 12:25:15;;;;;;;5.65;3.25;;;11.70;33.20;;;;;;6186161;23;20054;-81
2023/02/08 12:27:43;;;;;;;5.47;3.03;;;11.90;32.50;;;;;;6184214;23;20008;-80
2023/02/08 12:30:25;;;;;;;4.75;3.15;;;12.10;32.70;;;;;;6186431;23;20500;-79
2023/02/08 12:33:00;;;;;;;6.20;3.15;;;12.10;32.50;;;;;;6186218;23;19997;-79
2023/02/08 12:35:50;;;;;;;6.30;3.63;;;12.20;32.40;;;;;;6184640;23;20009;-80
2023/02/08 12:41:42;;;;;;;5.05;2.97;;;11.90;32.10;;;;;;6185949;23;20021;-79
2023/02/08 12:44:10;;;;;;;5.40;3.13;;;11.60;32.20;;;;;;6185840;23;20439;-79
2023/02/08 12:47:24;;;;;;;5.50;3.40;;;11.60;32.80;;;;;;6186020;23;20005;-79
2023/02/08 12:50:01;;;;;;;6.60;3.53;;;11.60;32.50;;;;;;6095792;23;20345;-79
2023/02/08 12:52:36;;;;;;;9.52;3.50;;;11.60;33.20;;;;;;6185886;23;20008;-80
2023/02/08 12:55:16;;;;;;;5.82;3.60;;;11.60;33.70;;;;;;6185817;23;20013;-79
2023/02/08 12:57:46;;;;;;;7.20;3.63;;;11.70;33.00;;;;;;6185762;23;20001;-79
2023/02/08 13:00:18;;;;;;;7.63;3.70;;;11.70;33.50;;;;;;6183964;23;20037;-79
2023/02/08 13:03:20;;;;;;;5.43;3.40;;;11.70;33.20;;;;;;6186139;23;20008;-81
2023/02/08 13:05:48;;;;;;;6.20;3.70;;;11.70;32.80;;;;;;6165710;23;20019;-76
2023/02/08 13:08:49;;;;;;;5.15;3.28;;;11.70;32.90;;;;;;6186637;23;20005;-80
2023/02/08 13:11:29;;;;;;;5.80;2.88;;;11.70;32.40;;;;;;6186655;23;20009;-80
2023/02/08 13:13:59;;;;;;;5.88;3.30;;;11.70;32.40;;;;;;6186873;23;20055;-79
2023/02/08 13:16:30;;;;;;;5.82;3.42;;;11.70;33.00;;;;;;6185790;23;20100;-81
2023/02/08 13:19:10;;;;;;;6.40;3.20;;;11.70;32.90;;;;;;6185812;23;20396;-81